• Join FlightAware (Why Join?)
  • Login
  • US Flag 
06:31AM EDT


 

Airport Tracker/Info


-or-


 

Live Flight TrackerFlight Track Log ✈ DAL1020 ✈ 09-Jul-2013 ✈ PANC - KMSP

Flight Track Log - Related Links

Times and Time Zones

All times are in EDT time to prevent confusion due to time zone crossing. See the DAL1020 flight status page for this flight to view local times or setup timezone preferences in your user account.

Time Position Orientation Groundspeed Altitude Reporting Facility
EDT Latitude Longitude Course Direction KTS MPH feet Rate Location/Type
04:48PM 61.3333 -149.9500 101° East 280 322 9,800  Level Anchorage Center
04:50PM 61.2833 -149.5833 106° East 370 426 13,700 2,100 Climbing Anchorage Center
04:51PM 60.8956 -148.4725 104° East  Level FlightAware Approximate
04:51PM 61.2500 -149.3667 108° East 380 437 16,300  Level Anchorage Center
04:52PM 60.8628 -148.2113 101° East  Level FlightAware Approximate
04:53PM 60.8364 -147.9472 101° East  Level FlightAware Approximate
04:53PM 61.2464 -148.8754 91° East  Level Estimated
04:53PM 61.1833 -148.9333 91° East 400 460 20,700  Level Anchorage Center
04:54PM 61.1500 -148.7000 106° East 410 472 22,800 1,860 Climbing Anchorage Center
04:56PM 61.0833 -148.2333 106° East 430 495 26,400 1,620 Climbing Anchorage Center
04:57PM 61.0500 -148.0000 106° East 440 506 27,800 2,040 Climbing Anchorage Center
04:58PM 61.0167 -147.7500 105° East 430 495 30,500 1,560 Climbing Anchorage Center
04:59PM 60.9833 -147.5000 105° East 440 506 31,000 840 Climbing Anchorage Center
05:01PM 60.9747 -147.0267 92° East  Level Estimated
05:02PM 60.8667 -146.7500 92° East 470 541 34,100  Level Anchorage Center
05:03PM 60.8167 -146.4833 111° Southeast 460 529 35,100 840 Climbing Anchorage Center
05:04PM 60.7833 -146.2333 105° East 470 541 35,800 780 Climbing Anchorage Center
05:05PM 60.7333 -145.9833 112° Southeast 470 541 36,700 540 Climbing Anchorage Center
05:06PM 60.7000 -145.7167 104° East 470 541 37,000 120 Climbing Anchorage Center
05:07PM 60.6500 -145.4667 112° Southeast 470 541 37,000  Level Anchorage Center
05:08PM 60.6167 -145.2167 105° East 470 541 37,000  Level Anchorage Center
05:09PM 60.5667 -144.9667 112° Southeast 460 529 37,000  Level Anchorage Center
05:10PM 60.5167 -144.7167 112° Southeast 460 529 37,000  Level Anchorage Center
05:11PM 60.4833 -144.4667 105° East 460 529 37,000  Level Anchorage Center
05:12PM 60.4333 -144.2167 112° Southeast 460 529 37,000  Level Anchorage Center
05:13PM 60.4000 -143.9833 106° East 460 529 37,000  Level Anchorage Center
05:14PM 60.3500 -143.7333 112° Southeast 470 541 37,000  Level Anchorage Center
05:15PM 60.3000 -143.4833 112° Southeast 470 541 37,000  Level Anchorage Center
05:16PM 60.2500 -143.2333 112° Southeast 480 552 37,000  Level Anchorage Center
05:17PM 60.2000 -142.9833 112° Southeast 470 541 37,000  Level Anchorage Center
05:18PM 60.1500 -142.7333 112° Southeast 470 541 37,000  Level Anchorage Center
05:19PM 60.1167 -142.5000 106° East 470 541 37,000  Level Anchorage Center
05:20PM 60.0667 -142.2500 112° Southeast 480 552 37,000  Level Anchorage Center
05:21PM 60.0167 -142.0000 112° Southeast 470 541 37,000  Level Anchorage Center
05:22PM 59.9667 -141.7500 112° Southeast 470 541 37,000  Level Anchorage Center
05:23PM 59.9167 -141.5167 113° Southeast 470 541 37,000  Level Anchorage Center
05:24PM 59.8667 -141.2667 112° Southeast 470 541 37,000  Level Anchorage Center
05:25PM 59.8167 -141.0333 113° Southeast 470 541 37,000  Level Anchorage Center
05:26PM 59.7500 -140.7833 118° Southeast 470 541 37,000  Level Anchorage Center
05:27PM 59.7000 -140.5500 113° Southeast 470 541 37,000  Level Anchorage Center
05:28PM 59.6500 -140.3167 113° Southeast 480 552 37,000  Level Anchorage Center
05:29PM 59.6000 -140.0667 111° Southeast 480 552 37,000  Level Anchorage Center
05:30PM 59.5500 -139.8333 113° Southeast 480 552 37,000  Level Anchorage Center
05:31PM 59.5000 -139.5833 111° Southeast 480 552 37,000  Level Anchorage Center
05:33PM 59.4500 -139.1000 101° East 480 552 37,000  Level Anchorage Center
05:34PM 59.4167 -138.8500 105° East 470 541 37,000  Level Anchorage Center
05:35PM 59.3833 -138.6000 105° East 470 541 37,000  Level Anchorage Center
05:36PM 59.3500 -138.3333 104° East 480 552 37,000  Level Anchorage Center
05:38PM 59.2833 -137.8333 104° East 470 541 37,000  Level Anchorage Center
05:39PM 59.2500 -137.5833 105° East 480 552 37,000  Level Anchorage Center
05:40PM 59.2167 -137.2833 102° East 470 541 37,000  Level Anchorage Center
05:41PM 59.1833 -137.0167 104° East 480 552 37,000  Level Anchorage Center
05:42PM 59.1500 -136.7667 104° East 480 552 37,000  Level Anchorage Center
05:43PM 59.1167 -136.5167 104° East 490 564 37,000  Level Anchorage Center
05:44PM 59.0833 -136.2667 104° East 470 541 37,000  Level Anchorage Center
05:45PM 59.0500 -136.0167 104° East 480 552 37,000  Level Anchorage Center
05:46PM 59.0000 -135.7667 111° Southeast 470 541 37,000  Level Anchorage Center
05:47PM 58.9667 -135.5167 104° East 480 552 37,000  Level Anchorage Center
05:48PM 58.9333 -135.2833 105° East 480 552 37,000  Level Anchorage Center
05:49PM 58.9000 -135.0333 104° East 480 552 37,000  Level Anchorage Center
05:50PM 58.8667 -134.7833 104° East 480 552 37,000  Level Anchorage Center
05:51PM 58.8167 -134.5333 111° Southeast 480 552 37,000  Level Anchorage Center
05:52PM 58.7833 -134.2833 104° East 480 552 37,000  Level Anchorage Center
05:53PM 58.7500 -134.0333 104° East 480 552 37,000  Level Anchorage Center
05:55PM 58.7089 -133.6780 102° East  Level FlightAware Approximate
06:02PM 58.4991 -131.9940 103° East  Level FlightAware Approximate
06:03PM 58.4674 -131.7551 104° East  Level FlightAware Approximate
06:04PM 58.4352 -131.5167 104° East  Level FlightAware Approximate
06:05PM 58.4026 -131.2786 105° East  Level FlightAware Approximate
06:06PM 58.3695 -131.0411 105° East  Level FlightAware Approximate
06:07PM 58.3360 -130.8039 105° East  Level FlightAware Approximate
06:08PM 58.3020 -130.5673 105° East  Level FlightAware Approximate
06:09PM 58.2676 -130.3311 105° East  Level FlightAware Approximate
06:10PM 58.2328 -130.0953 106° East  Level FlightAware Approximate
06:11PM 58.1976 -129.8600 106° East  Level FlightAware Approximate
06:12PM 58.1619 -129.6252 106° East  Level FlightAware Approximate
06:13PM 58.1258 -129.3908 106° East  Level FlightAware Approximate
06:14PM 58.0892 -129.1570 106° East  Level FlightAware Approximate
06:15PM 58.0522 -128.9236 107° East  Level FlightAware Approximate
06:16PM 58.0148 -128.6907 107° East  Level FlightAware Approximate
06:17PM 57.9770 -128.4583 107° East  Level FlightAware Approximate
06:18PM 57.9388 -128.2263 107° East  Level FlightAware Approximate
06:19PM 57.9001 -127.9949 107° East  Level FlightAware Approximate
06:20PM 57.8610 -127.7640 108° East  Level FlightAware Approximate
06:21PM 57.8215 -127.5336 108° East  Level FlightAware Approximate
06:22PM 57.7816 -127.3036 108° East  Level FlightAware Approximate
06:23PM 57.7412 -127.0742 108° East  Level FlightAware Approximate
06:24PM 57.7005 -126.8454 108° East  Level FlightAware Approximate
06:25PM 57.6593 -126.6170 109° East  Level FlightAware Approximate
06:26PM 57.6177 -126.3891 109° East  Level FlightAware Approximate
06:27PM 57.5750 -126.1614 109° East  Level FlightAware Approximate
06:28PM 57.5320 -125.9350 109° East  Level FlightAware Approximate
06:29PM 57.4885 -125.7092 110° East  Level FlightAware Approximate
06:30PM 57.4447 -125.4839 110° East  Level FlightAware Approximate
06:30PM 57.0000 -125.6167 111° Southeast 530 610 37,000  Level Edmonton Center
06:31PM 57.4005 -125.2591 110° East  Level FlightAware Approximate
06:31PM 56.9500 -125.4000 113° Southeast 480 552 37,000  Level Edmonton Center
06:32PM 57.3558 -125.0349 110° East  Level FlightAware Approximate
06:32PM 56.9000 -125.1667 111° Southeast 470 541 37,000  Level Edmonton Center
06:33PM 57.3108 -124.8112 110° East  Level FlightAware Approximate
06:33PM 56.8500 -124.9500 113° Southeast 470 541 37,000  Level Edmonton Center
06:34PM 57.2654 -124.5881 111° Southeast  Level FlightAware Approximate
06:34PM 56.7833 -124.7167 117° Southeast 470 541 37,000  Level Edmonton Center
06:35PM 57.2196 -124.3655 111° Southeast  Level FlightAware Approximate
06:35PM 56.7333 -124.5000 113° Southeast 470 541 37,000  Level Edmonton Center
06:36PM 56.6833 -124.2833 113° Southeast 470 541 37,000  Level Edmonton Center
06:37PM 56.6167 -124.0667 119° Southeast 480 552 37,000  Level Edmonton Center
06:38PM 56.5833 -123.8167 104° East 480 552 37,000  Level Edmonton Center
06:39PM 56.5333 -123.6000 113° Southeast 480 552 37,000  Level Edmonton Center
06:40PM 56.4833 -123.3833 113° Southeast 480 552 37,000  Level Edmonton Center
06:41PM 56.4500 -123.1500 104° East 480 552 37,000 600 Level Edmonton Center
06:42PM 56.4000 -122.9333 113° Southeast 480 552 38,200 900 Climbing Edmonton Center
06:43PM 56.3500 -122.6833 110° East 470 541 38,900 360 Climbing Edmonton Center
06:44PM 56.3167 -122.4833 107° East 470 541 39,000  Climbing Edmonton Center
06:45PM 56.2500 -122.2667 119° Southeast 460 529 39,000  Level Edmonton Center
06:46PM 56.2167 -122.0500 105° East 460 529 39,000  Level Edmonton Center
06:47PM 56.1500 -121.8500 121° Southeast 470 541 39,000  Level Edmonton Center
06:48PM 56.1167 -121.6167 104° East 470 541 39,000  Level Edmonton Center
06:49PM 56.0667 -121.4000 112° Southeast 470 541 39,000  Level Edmonton Center
06:50PM 56.0167 -121.1500 110° East 470 541 39,000  Level Edmonton Center
06:51PM 55.9667 -120.9500 114° Southeast 470 541 39,000  Level Edmonton Center
06:52PM 55.9167 -120.7333 112° Southeast 470 541 39,000  Level Edmonton Center
06:53PM 55.8667 -120.5333 114° Southeast 470 541 39,000  Level Edmonton Center
06:54PM 55.8167 -120.3000 111° Southeast 470 541 39,000  Level Edmonton Center
06:55PM 55.7500 -120.0833 119° Southeast 470 541 39,000  Level Edmonton Center
06:56PM 55.7167 -119.8833 106° East 470 541 39,000  Level Edmonton Center
06:57PM 55.6500 -119.6500 117° Southeast 470 541 39,000  Level Edmonton Center
06:58PM 55.6167 -119.4500 106° East 470 541 39,000  Level Edmonton Center
06:59PM 55.5500 -119.2167 117° Southeast 470 541 39,000  Level Edmonton Center
07:00PM 55.4833 -119.0167 120° Southeast 470 541 39,000  Level Edmonton Center
07:01PM 55.4500 -118.7833 104° East 470 541 39,000  Level Edmonton Center
07:02PM 55.3833 -118.5833 120° Southeast 470 541 39,000  Level Edmonton Center
07:03PM 55.3167 -118.3667 118° Southeast 470 541 39,000  Level Edmonton Center
07:04PM 55.2833 -118.1500 105° East 470 541 39,000  Level Edmonton Center
07:05PM 55.2333 -117.9500 114° Southeast 470 541 39,000  Level Edmonton Center
07:06PM 55.1667 -117.7500 120° Southeast 470 541 39,000  Level Edmonton Center
07:07PM 55.1000 -117.5167 116° Southeast 470 541 39,000  Level Edmonton Center
07:08PM 55.0667 -117.3167 106° East 470 541 39,000  Level Edmonton Center
07:09PM 55.0000 -117.1167 120° Southeast 470 541 39,000  Level Edmonton Center
07:10PM 54.9333 -116.8833 116° Southeast 480 552 39,000  Level Edmonton Center
07:11PM 54.8833 -116.7000 115° Southeast 480 552 39,000  Level Edmonton Center
07:12PM 54.8167 -116.4667 116° Southeast 480 552 39,000  Level Edmonton Center
07:13PM 54.7500 -116.2667 120° Southeast 470 541 39,000  Level Edmonton Center
07:14PM 54.7000 -116.0833 115° Southeast 470 541 39,000  Level Edmonton Center
07:15PM 54.6500 -115.8667 112° Southeast 460 529 39,000  Level Edmonton Center
07:16PM 54.5833 -115.6667 120° Southeast 460 529 39,000  Level Edmonton Center
07:17PM 54.5167 -115.4667 120° Southeast 470 541 39,000  Level Edmonton Center
07:18PM 54.4500 -115.2500 118° Southeast 480 552 39,000  Level Edmonton Center
07:19PM 54.4000 -115.0500 113° Southeast 480 552 39,000  Level Edmonton Center
07:20PM 54.3333 -114.8333 118° Southeast 480 552 39,000  Level Edmonton Center
07:21PM 54.2833 -114.6500 115° Southeast 470 541 39,000  Level Edmonton Center
07:22PM 54.2167 -114.4167 116° Southeast 470 541 39,000  Level Edmonton Center
07:23PM 54.1667 -114.2333 115° Southeast 470 541 39,000  Level Edmonton Center
07:24PM 54.1000 -114.0500 122° Southeast 470 541 39,000  Level Edmonton Center
07:25PM 54.0333 -113.8333 118° Southeast 470 541 39,000  Level Edmonton Center
07:26PM 53.9667 -113.6500 122° Southeast 470 541 39,000  Level Edmonton Center
07:27PM 53.9167 -113.4500 113° Southeast 470 541 39,000  Level Edmonton Center
07:28PM 53.8500 -113.2333 117° Southeast 470 541 39,000  Level Edmonton Center
07:29PM 53.7833 -113.0500 122° Southeast 470 541 39,000  Level Edmonton Center
07:30PM 53.7000 -112.8333 123° Southeast 480 552 39,000  Level Edmonton Center
07:31PM 53.6500 -112.6500 115° Southeast 480 552 39,000  Level Edmonton Center
07:32PM 53.5833 -112.4667 121° Southeast 480 552 39,000  Level Edmonton Center
07:33PM 53.4833 -112.2833 132° Southeast 470 541 39,000  Level Edmonton Center
07:34PM 53.4000 -112.1167 130° Southeast 470 541 39,000  Level Edmonton Center
07:35PM 53.3000 -111.9667 138° Southeast 470 541 39,000  Level Edmonton Center
07:36PM 53.2333 -111.8167 127° Southeast 480 552 39,000  Level Edmonton Center
07:37PM 53.1167 -111.6167 134° Southeast 480 552 39,000  Level Edmonton Center
07:38PM 53.0500 -111.4667 126° Southeast 470 541 39,000  Level Edmonton Center
07:40PM 52.8667 -111.0667 127° Southeast 490 564 39,000  Level Winnipeg Center
07:41PM 52.8167 -110.9333 122° Southeast 480 552 39,000  Level Edmonton Center
07:42PM 52.7500 -110.7167 117° Southeast 480 552 39,000  Level Edmonton Center
07:43PM 52.6833 -110.5167 119° Southeast 480 552 39,000  Level Edmonton Center
07:44PM 52.6333 -110.3167 112° Southeast 480 552 39,000  Level Edmonton Center
07:45PM 52.5333 -110.0667 123° Southeast 490 564 39,000  Level Winnipeg Center
07:46PM 52.4667 -109.8833 121° Southeast 490 564 39,000  Level Winnipeg Center
07:47PM 52.4167 -109.6833 112° Southeast 490 564 39,000  Level Winnipeg Center
07:48PM 52.3667 -109.5333 119° Southeast 480 552 39,000  Level Edmonton Center
07:49PM 52.3000 -109.3667 123° Southeast 480 552 39,000  Level Edmonton Center
07:50PM 52.2333 -109.1667 118° Southeast 480 552 39,000  Level Edmonton Center
07:51PM 52.1500 -108.9333 120° Southeast 480 552 39,000  Level Winnipeg Center
07:52PM 52.0833 -108.7167 117° Southeast 480 552 39,000  Level Winnipeg Center
07:53PM 52.0167 -108.5333 121° Southeast 480 552 39,000  Level Winnipeg Center
07:55PM 51.9000 -108.2000 119° Southeast 480 552 39,000  Level Edmonton Center
07:56PM 51.8333 -108.0333 123° Southeast 480 552 39,000  Level Edmonton Center
07:57PM 51.7333 -107.7833 123° Southeast 490 564 39,000  Level Winnipeg Center
07:58PM 51.6667 -107.6000 120° Southeast 490 564 39,000  Level Winnipeg Center
07:59PM 51.6000 -107.4000 118° Southeast 490 564 39,000  Level Winnipeg Center
08:00PM 51.5333 -107.2167 120° Southeast 490 564 39,000  Level Winnipeg Center
08:01PM 51.4667 -107.0167 118° Southeast 490 564 39,000  Level Winnipeg Center
08:02PM 51.4000 -106.8333 120° Southeast 500 575 39,000  Level Winnipeg Center
08:03PM 51.3167 -106.6333 124° Southeast 500 575 39,000  Level Winnipeg Center
08:04PM 51.2500 -106.4500 120° Southeast 500 575 39,000  Level Winnipeg Center
08:05PM 51.1833 -106.2500 118° Southeast 510 587 39,000  Level Winnipeg Center
08:06PM 51.1167 -106.0667 120° Southeast 510 587 39,000  Level Winnipeg Center
08:07PM 51.0333 -105.8667 123° Southeast 510 587 39,000  Level Winnipeg Center
08:08PM 50.9500 -105.7000 128° Southeast 510 587 39,000  Level Winnipeg Center
08:09PM 50.8667 -105.4833 121° Southeast 510 587 39,000  Level Winnipeg Center
08:10PM 50.8000 -105.3000 120° Southeast 510 587 39,000  Level Winnipeg Center
08:11PM 50.7333 -105.1167 120° Southeast 510 587 39,000  Level Winnipeg Center
08:12PM 50.6667 -104.9167 118° Southeast 510 587 39,000  Level Winnipeg Center
08:13PM 50.5667 -104.7500 133° Southeast 500 575 39,000  Level Winnipeg Center
08:14PM 50.5000 -104.5500 118° Southeast 510 587 39,000  Level Winnipeg Center
08:15PM 50.4167 -104.3500 123° Southeast 510 587 39,000  Level Winnipeg Center
08:16PM 50.3333 -104.1833 128° Southeast 500 575 39,000  Level Winnipeg Center
08:17PM 50.2667 -104.0167 122° Southeast 500 575 39,000  Level Winnipeg Center
08:18PM 50.2000 -103.8167 117° Southeast 500 575 39,000  Level Winnipeg Center
08:19PM 50.1000 -103.6500 133° Southeast 500 575 39,000  Level Winnipeg Center
08:20PM 50.0333 -103.4500 117° Southeast 500 575 39,000  Level Winnipeg Center
08:21PM 49.9500 -103.2833 128° Southeast 510 587 39,000  Level Winnipeg Center
08:22PM 49.8667 -103.1000 125° Southeast 510 587 39,000  Level Winnipeg Center
08:23PM 49.7833 -102.9333 128° Southeast 510 587 39,000  Level Winnipeg Center
08:24PM 49.7000 -102.7333 123° Southeast 510 587 39,000  Level Winnipeg Center
08:25PM 49.6333 -102.5500 119° Southeast 510 587 39,000  Level Winnipeg Center
08:26PM 49.5500 -102.3833 128° Southeast 510 587 39,000  Level Winnipeg Center
08:27PM 49.4667 -102.2000 125° Southeast 510 587 39,000  Level Winnipeg Center
08:28PM 49.3833 -102.0333 127° Southeast 510 587 39,000  Level Winnipeg Center
08:29PM 49.2833 -101.8333 127° Southeast 510 587 39,000  Level Winnipeg Center
08:30PM 49.2167 -101.6833 124° Southeast 510 587 39,000  Level Winnipeg Center
08:31PM 49.1333 -101.5000 125° Southeast 510 587 39,000  Level Winnipeg Center
08:32PM 49.0667 -101.3333 121° Southeast 500 575 39,000  Level Winnipeg Center
08:33PM 48.9667 -101.1500 130° Southeast 500 575 39,000  Level Winnipeg Center
08:34PM 48.8833 -100.9833 127° Southeast 500 575 39,000  Level Winnipeg Center
08:35PM 48.8000 -100.8000 125° Southeast 500 575 39,000  Level Winnipeg Center
08:35PM 48.7894 -100.7406 105° East 504 580 39,000  Level Minneapolis Center
08:37PM 48.7058 -100.5683 126° Southeast 506 582 39,000  Level Minneapolis Center
08:38PM 48.6042 -100.3647 127° Southeast 507 583 39,000  Level Minneapolis Center
08:39PM 48.5192 -100.1928 127° Southeast 510 587 39,000  Level Minneapolis Center
08:40PM 48.4347 -100.0214 127° Southeast 511 588 39,000  Level Minneapolis Center
08:41PM 48.3486 -99.8511 127° Southeast 512 589 39,000  Level Minneapolis Center
08:42PM 48.2619 -99.6808 127° Southeast 514 592 39,000  Level Minneapolis Center
08:43PM 48.1767 -99.5089 127° Southeast 516 594 39,000  Level Minneapolis Center
08:44PM 48.0742 -99.3003 126° Southeast 520 598 39,000  Level Minneapolis Center
08:45PM 47.9858 -99.1294 128° Southeast 519 597 39,000  Level Minneapolis Center
08:46PM 47.8975 -98.9611 128° Southeast 519 597 39,000  Level Minneapolis Center
08:47PM 47.8094 -98.7917 128° Southeast 519 597 39,000  Level Minneapolis Center
08:48PM 47.7206 -98.6236 128° Southeast 519 597 39,000  Level Minneapolis Center
08:49PM 47.6161 -98.4269 128° Southeast 514 592 39,000 -480 Level Minneapolis Center
08:50PM 47.5297 -98.2656 128° Southeast 510 587 38,100 -1,140 Descending Minneapolis Center
08:51PM 47.4419 -98.1019 128° Southeast 513 590 36,700 -900 Descending Minneapolis Center
08:52PM 47.3536 -97.9403 129° Southeast 520 598 36,300 -780 Descending Minneapolis Center
08:53PM 47.2489 -97.7450 128° Southeast 516 594 35,200 -660 Descending Minneapolis Center
08:54PM 47.1583 -97.5797 129° Southeast 521 600 35,000 -120 Descending Minneapolis Center
08:55PM 47.0686 -97.4167 129° Southeast 518 596 35,000  Level Minneapolis Center
08:56PM 46.9792 -97.2531 129° Southeast 517 595 35,000  Level Minneapolis Center
08:57PM 46.8878 -97.0922 130° Southeast 518 596 35,000  Level Minneapolis Center
08:58PM 46.7789 -96.8953 129° Southeast 520 598 35,000  Level Minneapolis Center
08:59PM 46.7092 -96.7092 119° Southeast 525 604 35,000  Level Minneapolis Center
09:00PM 46.6506 -96.5094 113° Southeast 534 615 35,000  Level Minneapolis Center
09:01PM 46.5925 -96.3131 113° Southeast 533 613 35,000  Level Minneapolis Center
09:02PM 46.5314 -96.1158 114° Southeast 537 618 35,000  Level Minneapolis Center
09:03PM 46.4703 -95.9172 114° Southeast 539 620 35,000  Level Minneapolis Center
09:04PM 46.4014 -95.6978 114° Southeast 538 619 35,000 -360 Level Minneapolis Center
09:05PM 46.3403 -95.5019 114° Southeast 535 616 34,300 -960 Descending Minneapolis Center
09:07PM 46.2753 -95.2944 114° Southeast 514 592 33,100 -1,140 Descending Minneapolis Center
09:08PM 46.2181 -95.1139 115° Southeast 501 577 32,000 -1,020 Descending Minneapolis Center
09:09PM 46.1636 -94.9450 115° Southeast 489 563 31,100 -1,320 Descending Minneapolis Center
09:10PM 46.0978 -94.7397 115° Southeast 474 545 29,400 -1,500 Descending Minneapolis Center
09:11PM 46.0425 -94.5725 115° Southeast 466 536 28,100 -720 Descending Minneapolis Center
09:12PM 45.9889 -94.4067 115° Southeast 461 531 28,000 -420 Descending Minneapolis Center
09:13PM 45.9350 -94.2422 115° Southeast 456 525 27,300 -1,140 Descending Minneapolis Center
09:14PM 45.8808 -94.0792 115° Southeast 455 524 25,700 -1,620 Descending Minneapolis Center
09:15PM 45.8236 -93.9178 117° Southeast 454 522 24,000 -1,740 Descending Minneapolis Center
09:16PM 45.7108 -93.7633 136° Southeast 469 540 22,200 -2,280 Descending Minneapolis Center
09:17PM 45.6058 -93.6561 144° Southeast 465 535 19,300 -2,760 Descending Minneapolis Center
09:18PM 45.4997 -93.5569 147° Southeast 454 522 16,500 -2,760 Descending Minneapolis Center
09:19PM 45.3889 -93.5006 160° South 423 487 13,700 -2,580 Descending Minneapolis Center
09:20PM 45.2803 -93.4447 160° South 416 479 11,200 -1,320 Descending Minneapolis Center
09:21PM 45.1728 -93.3875 159° South 414 476 11,000 -120 Descending Minneapolis Center
09:22PM 45.0658 -93.3292 159° South 413 475 11,000 -60 Level Minneapolis Center
09:23PM 44.9628 -93.2186 143° Southeast 389 448 10,900 -1,020 Descending Minneapolis Center
09:24PM 44.9106 -93.0972 121° Southeast 349 402 8,900 -1,680 Descending Minneapolis Center
09:25PM 44.8667 -92.9925 121° Southeast 304 350 7,500 -1,500 Descending Minneapolis Center
09:26PM 44.8456 -92.8925 107° East 265 305 5,900 -1,560 Descending Minneapolis Center
09:27PM 44.8183 -92.8039 113° Southeast 259 298 4,300 -960 Descending Minneapolis Center
09:28PM 44.7619 -92.8272 196° South 225 259 4,000 -180 Descending Minneapolis Center
09:29PM 44.7594 -92.8986 267° West 185 213 4,000  Level Minneapolis Center
09:30PM 44.7847 -92.9731 296° West 180 207 4,000 -300 Level Minneapolis Center
09:31PM 44.8058 -93.0211 302° West 183 211 3,500 -720 Descending Minneapolis Center
09:32PM 44.8331 -93.0836 302° West 154 177 2,600 -780 Descending Minneapolis Center
09:33PM 44.8519 -93.1267 302° West 132 152 1,900 -660 Descending Minneapolis Center
09:34PM 44.8683 -93.1636 302° West 114 131 1,300 -600 Descending Minneapolis Center
09:36PM 44.8667 -93.2167 270° West  Level FlightAware Approximate
09:43PM 44.8820 -93.2218 270° West  Level Estimated
09:44PM 44.8820 -93.2218 270° West  Level Estimated